createdAt,value
2023-07-24T00:13:22.690Z,17.4
2023-07-24T00:28:22.697Z,17.3
2023-07-24T00:43:22.719Z,17.1
2023-07-24T00:58:22.692Z,17.1
2023-07-24T01:13:22.708Z,17.1
2023-07-24T01:28:22.691Z,17.2
2023-07-24T01:43:22.717Z,17.3
2023-07-24T01:58:22.691Z,17.4
2023-07-24T02:13:22.712Z,17.2
2023-07-24T02:28:22.678Z,17.2
2023-07-24T02:43:22.718Z,17.2
2023-07-24T02:58:22.737Z,17.1
2023-07-24T03:13:22.687Z,17
2023-07-24T03:28:22.756Z,17.1
2023-07-24T03:43:22.684Z,17.1
2023-07-24T03:58:22.690Z,17.1
2023-07-24T04:13:22.708Z,17.1
2023-07-24T04:28:22.706Z,17.2
2023-07-24T04:43:22.732Z,17.1
2023-07-24T04:58:22.709Z,17.1
2023-07-24T05:13:22.691Z,17.3
2023-07-24T05:28:22.689Z,17.3
2023-07-24T05:43:22.718Z,17.4
2023-07-24T05:58:22.703Z,17.6
2023-07-24T06:13:22.746Z,17.7
2023-07-24T06:28:22.699Z,17.9
2023-07-24T06:43:22.726Z,18
2023-07-24T06:58:22.718Z,17.9
2023-07-24T07:13:22.690Z,18.2
2023-07-24T07:28:22.700Z,18.3
2023-07-24T07:43:22.712Z,18.4
2023-07-24T07:58:22.719Z,18.4
2023-07-24T08:13:22.693Z,18.9
2023-07-24T08:28:22.719Z,18.9
2023-07-24T08:43:24.216Z,19
2023-07-24T08:58:22.703Z,19.4
2023-07-24T09:13:22.710Z,19.7
2023-07-24T09:28:22.720Z,19.8
2023-07-24T09:43:37.657Z,19.5
2023-07-24T09:58:22.717Z,20.9
2023-07-24T10:13:22.708Z,20.9
2023-07-24T10:28:22.720Z,20.4
2023-07-24T10:43:22.713Z,18.9
2023-07-24T10:58:22.716Z,18.1
2023-07-24T11:13:22.704Z,18.2
2023-07-24T11:28:22.686Z,17.3
2023-07-24T11:43:22.702Z,16.9
2023-07-24T11:58:22.733Z,16.9
2023-07-24T12:13:22.690Z,17.3
2023-07-24T12:28:22.703Z,17.7
2023-07-24T12:43:22.699Z,17.3
2023-07-24T12:58:22.685Z,17.4
2023-07-24T13:13:22.699Z,18.1
2023-07-24T13:28:22.699Z,18.5
2023-07-24T13:43:22.689Z,19.2
2023-07-24T13:58:22.708Z,19
2023-07-24T14:13:22.720Z,20.8
2023-07-24T14:28:22.699Z,20.8
2023-07-24T14:43:22.709Z,21.7
2023-07-24T14:58:22.715Z,22.4
2023-07-24T15:13:22.712Z,21.5
2023-07-24T15:28:22.706Z,20.6
2023-07-24T15:43:22.700Z,20.3
2023-07-24T15:58:22.705Z,19.6
2023-07-24T16:13:22.708Z,19.6
2023-07-24T16:28:22.716Z,19.9
2023-07-24T16:43:22.709Z,18.4
2023-07-24T16:58:22.695Z,15.2
2023-07-24T17:13:22.702Z,14.9
2023-07-24T17:28:22.700Z,15.2
2023-07-24T17:43:22.686Z,15.7
2023-07-24T17:58:22.715Z,15.8
2023-07-24T18:13:22.701Z,15.9
2023-07-24T18:28:22.682Z,15.7
2023-07-24T18:43:22.689Z,15.7
2023-07-24T18:58:22.719Z,15.8
2023-07-24T19:13:22.674Z,15.6
2023-07-24T19:28:22.720Z,15.5
2023-07-24T19:43:22.733Z,15.4
2023-07-24T19:58:32.632Z,15.6
2023-07-24T20:13:22.710Z,15.6
2023-07-24T20:28:22.703Z,15.5
2023-07-24T20:43:22.717Z,15.5
2023-07-24T20:58:22.714Z,15.3
2023-07-24T21:13:22.732Z,15.2
2023-07-24T21:28:22.699Z,15.1
2023-07-24T21:43:22.731Z,14.9
2023-07-24T21:58:22.701Z,14.6
2023-07-24T22:13:22.748Z,14.5
2023-07-24T22:28:22.690Z,14.4
2023-07-24T22:43:22.715Z,14.4
2023-07-24T22:58:22.682Z,14.2
2023-07-24T23:13:22.688Z,14.2
2023-07-24T23:28:22.710Z,14.1
2023-07-24T23:43:22.694Z,14
2023-07-24T23:58:22.697Z,14.1
